Airfield :
LOGIN :

Register | Disclaimer

   EN    FR    IT 

 










Legend :    VFR   Marginal VFR   IFR   Intensive IFR   Very Intensive IFR
Visi :
Ceiling :
>= 8 km
>= 3000ft
5 to 8 km
1000 to 3000 ft
1500m to 5 km
500 to 1000 ft
800 to 1500m
200 to 500 ft
< 800m
< 200 ft
Symbols :   Thunderstorms  Fog  Heavy snow  Heavy precipitations  Wind > 20 kt
SIGMETs :     Misc.  Thunderstorms  Icing  Turbulence  Mountain Waves  Volcanic Ashes







- Airport Elevation : 144 ft
- IATA code : PGF
- Download approach charts


LFMP - Perpignan

CURRENT METAR :
  • 261230Z AUTO 06008KT CAVOK 16/09 Q1018 NOSIG

EXPIRED METARs :
  • 261200Z AUTO 07009KT 010V100 CAVOK 15/09 Q1018 NOSIG
  • 261130Z AUTO 06007KT 030V090 CAVOK 15/09 Q1019 NOSIG
  • 261100Z AUTO 07005KT 010V100 CAVOK 15/09 Q1019 NOSIG
  • 261030Z AUTO 06005KT 350V110 CAVOK 15/09 Q1019 NOSIG
  • 261000Z AUTO 08004KT 020V140 CAVOK 14/08 Q1019 NOSIG

TAF TAF LFMP
Valid from the 26 at 09:00 until the 27 at 09:00 UTC


260800Z 2609/2709 VRB03KT CAVOK
TEMPO 2700/2707 4000 BR BKN010
BECMG 2707/2709 12010KT
ATIS : +33 4 68 63 75 12
No reported NOTAMs for that airfield.
1 SIGMET reported for the Marseille FIR (LFMM) :
 
Severe turbulence
LFMM SIGMET 1 VALID 261000/261400 LFPW
LFMM MARSEILLE FIR/UIR SEV TURB FCST WI N4415 E00700 - N4400 E00700 - N4330 E00900 - N4345 E00545 - N4500 E00245 - N4545 E00300 FL160/330 MOV S 10KT NC=



MET'MAP, your aeronautical weather chart ! - Copyright ORBIFLY December 2007 - Disclaimer

ORBIFLY MET'MAP TEAM :

Programming & Development : Alexandra Zaïnal
Concept & Development : Baudouin d'Aumeries
Co-Development & Prog : Marc-Olivier Méhu
Technical & hardware support : Manuel Goepfert

Contact : metmap@orbifly.com




SOURCES & CREDITS :

   NOAA